Time;durP1;ratioP1;P1;durP2;ratioP2;P2;SDS_P1;SDS_P2;PMS_P1;PMS_P2;Temp;Humidity;BMP_temperature;BMP_pressure;BME280_temperature;BME280_humidity;BME280_pressure;Samples;Min_cycle;Max_cycle;Signal;HPM_P1;HPM_P2
2024/02/19 00:01:29;;;;;;;0.63;0.63;;;;;;;-145.69;64.85;52282.00;5113981;28;20210;-80
2024/02/19 00:03:57;;;;;;;0.80;0.80;;;;;;;-145.69;64.83;52309.72;5113711;28;20285;-80
2024/02/19 00:06:23;;;;;;;0.70;0.70;;;;;;;-145.69;64.89;52262.19;5113944;28;20219;-80
2024/02/19 00:08:51;;;;;;;1.00;0.97;;;;;;;-145.69;65.16;52270.13;5113721;27;20197;-80
2024/02/19 00:11:17;;;;;;;0.50;0.50;;;;;;;-145.69;64.56;52282.00;5114105;28;20254;-79
2024/02/19 00:13:44;;;;;;;0.70;0.70;;;;;;;-145.69;64.69;52301.81;5113630;28;20231;-80
2024/02/19 00:16:10;;;;;;;0.50;0.50;;;;;;;-145.69;65.15;52256.25;5113644;28;20324;-80
2024/02/19 00:18:37;;;;;;;0.60;0.60;;;;;;;-145.69;64.36;52287.94;5113796;28;20198;-80
2024/02/19 00:21:05;;;;;;;0.50;0.50;;;;;;;-145.69;64.64;52287.94;5113596;28;20197;-81
2024/02/19 00:23:33;;;;;;;0.70;0.70;;;;;;;-145.69;64.74;52293.88;5113651;28;20209;-81
2024/02/19 00:26:01;;;;;;;0.60;0.60;;;;;;;-145.69;64.79;52266.16;5113411;28;20205;-80
2024/02/19 00:28:28;;;;;;;1.27;0.53;;;;;;;-145.69;64.78;52278.03;5113461;28;20283;-80
2024/02/19 00:30:54;;;;;;;0.70;0.57;;;;;;;-145.69;64.53;52305.75;5113580;28;20212;-81
2024/02/19 00:33:21;;;;;;;0.60;0.60;;;;;;;-145.69;64.92;52305.75;5113536;28;20567;-79
2024/02/19 00:35:48;;;;;;;0.60;0.60;;;;;;;-145.69;64.77;52305.75;5113328;28;20232;-80
2024/02/19 00:38:17;;;;;;;0.93;0.50;;;;;;;-145.69;65.46;52295.84;5113186;28;20205;-79
2024/02/19 00:40:45;;;;;;;0.70;0.70;;;;;;;-145.69;65.44;52299.81;5113360;28;20201;-79
2024/02/19 00:43:12;;;;;;;0.60;0.60;;;;;;;-145.69;65.93;52293.88;5113295;28;20197;-80
2024/02/19 00:45:38;;;;;;;0.50;0.50;;;;;;;-145.69;65.85;52283.97;5112885;28;20598;-79
2024/02/19 00:48:06;;;;;;;0.70;0.70;;;;;;;-145.69;65.73;52283.97;5113232;28;20208;-81
2024/02/19 00:50:32;;;;;;;0.50;0.50;;;;;;;-145.69;65.97;52307.75;5113111;28;20229;-80
2024/02/19 00:52:58;;;;;;;0.50;0.50;;;;;;;-145.69;65.98;52293.88;5113213;28;20204;-79
2024/02/19 00:55:26;;;;;;;1.07;0.50;;;;;;;-145.69;66.23;52307.75;5112753;28;20614;-81
2024/02/19 00:57:53;;;;;;;0.50;0.50;;;;;;;-145.69;66.62;52264.16;5112506;28;20197;-80
2024/02/19 01:00:19;;;;;;;0.60;0.60;;;;;;;-145.69;67.50;52276.06;5113358;28;20205;-79
2024/02/19 01:02:46;;;;;;;0.90;0.60;;;;;;;-145.69;67.08;52293.88;5112850;28;20198;-81
2024/02/19 01:05:12;;;;;;;0.60;0.60;;;;;;;-145.69;67.45;52307.75;5111639;28;20206;-81
2024/02/19 01:07:39;;;;;;;0.53;0.53;;;;;;;-145.69;67.38;52258.22;5113193;28;20197;-79
2024/02/19 01:10:06;;;;;;;0.40;0.40;;;;;;;-145.69;68.20;52297.84;5111425;28;20909;-79
2024/02/19 01:12:34;;;;;;;0.50;0.50;;;;;;;-145.69;67.98;52309.72;5112387;28;20525;-81
2024/02/19 01:15:00;;;;;;;0.60;0.60;;;;;;;-145.69;68.12;52274.06;5112797;28;20267;-81
2024/02/19 01:17:27;;;;;;;0.57;0.57;;;;;;;-145.69;68.37;52289.91;5112483;28;20198;-80
2024/02/19 01:19:53;;;;;;;0.50;0.50;;;;;;;-145.69;68.33;52291.91;5113110;28;20198;-80
2024/02/19 01:22:20;;;;;;;0.60;0.60;;;;;;;-145.69;68.53;52309.72;5112595;28;20193;-82
2024/02/19 01:24:46;;;;;;;1.03;0.60;;;;;;;-145.69;68.59;52274.06;5112781;28;20201;-81
2024/02/19 01:27:12;;;;;;;0.40;0.40;;;;;;;-145.69;68.62;52297.84;5112899;28;20280;-80
2024/02/19 01:29:40;;;;;;;0.93;0.60;;;;;;;-145.69;68.76;52293.88;5113010;28;20533;-80
2024/02/19 01:32:06;;;;;;;0.50;0.50;;;;;;;-145.69;68.64;52307.75;5112859;28;20193;-81
2024/02/19 01:34:33;;;;;;;0.83;0.60;;;;;;;-145.69;68.24;52270.13;5112731;28;20204;-80
2024/02/19 01:36:59;;;;;;;0.60;0.60;;;;;;;-145.69;68.57;52282.00;5112560;28;20656;-80
2024/02/19 01:39:26;;;;;;;1.57;0.70;;;;;;;-145.69;68.82;52329.53;5112396;28;20202;-80
2024/02/19 01:41:52;;;;;;;0.77;0.70;;;;;;;-145.69;68.70;52293.88;5112653;28;20197;-80
2024/02/19 01:44:20;;;;;;;0.60;0.60;;;;;;;-145.69;68.89;52297.84;5112870;28;20292;-80
2024/02/19 01:46:48;;;;;;;0.70;0.70;;;;;;;-145.69;68.35;52287.94;5112615;28;20216;-80
2024/02/19 01:49:15;;;;;;;0.50;0.50;;;;;;;-145.69;67.97;52303.78;5112587;28;20237;-81
2024/02/19 01:51:43;;;;;;;0.50;0.50;;;;;;;-145.69;67.95;52293.88;5112555;28;20205;-80
2024/02/19 01:54:11;;;;;;;0.60;0.60;;;;;;;-145.69;68.16;52301.81;5112564;28;20660;-80
2024/02/19 01:56:39;;;;;;;0.57;0.57;;;;;;;-145.69;67.87;52283.97;5112803;28;20229;-80
2024/02/19 01:59:07;;;;;;;0.70;0.57;;;;;;;-145.69;67.97;52305.75;5111893;28;20189;-81
2024/02/19 02:01:37;;;;;;;1.07;0.60;;;;;;;-145.69;68.32;52283.97;5112154;28;20205;-80
2024/02/19 02:04:06;;;;;;;0.77;0.60;;;;;;;-145.69;68.10;52270.13;5112508;28;20197;-80
2024/02/19 02:06:33;;;;;;;1.80;0.53;;;;;;;-145.69;68.70;52303.78;5112610;28;20564;-80
2024/02/19 02:08:59;;;;;;;2.53;0.70;;;;;;;-145.69;68.98;52317.66;5112357;28;20716;-81
2024/02/19 02:11:26;;;;;;;0.70;0.70;;;;;;;-145.69;69.04;52297.84;5112429;28;20254;-81
2024/02/19 02:13:52;;;;;;;0.80;0.80;;;;;;;-145.69;69.17;52291.91;5112557;28;20780;-80
2024/02/19 02:16:25;;;;;;;1.20;0.70;;;;;;;-145.69;69.34;52266.16;5112170;28;20229;-81
2024/02/19 02:18:51;;;;;;;1.13;0.60;;;;;;;-145.69;69.77;52289.91;5112407;28;20667;-81
2024/02/19 02:21:19;;;;;;;1.20;0.70;;;;;;;-145.69;69.73;52305.75;5114108;28;20258;-81
2024/02/19 02:23:45;;;;;;;0.70;0.70;;;;;;;-145.69;69.56;52297.84;5116162;28;20617;-81
2024/02/19 02:26:12;;;;;;;0.70;0.70;;;;;;;-145.69;69.98;52285.97;5115848;28;20201;-81
2024/02/19 02:28:42;;;;;;;1.10;0.70;;;;;;;-145.69;69.67;52272.09;5115989;27;20287;-80
2024/02/19 02:31:08;;;;;;;0.60;0.60;;;;;;;-145.69;69.20;52309.72;5115823;28;20205;-81
2024/02/19 02:33:35;;;;;;;0.73;0.73;;;;;;;-145.69;69.44;52329.53;5115507;28;20194;-81
2024/02/19 02:36:01;;;;;;;1.47;0.70;;;;;;;-145.69;69.43;52305.75;5115969;28;20336;-81
2024/02/19 02:38:28;;;;;;;0.97;0.63;;;;;;;-145.69;69.02;52339.44;5115336;28;20227;-81
2024/02/19 02:40:55;;;;;;;0.70;0.63;;;;;;;-145.69;68.83;52293.88;5115383;28;20201;-80
2024/02/19 02:43:21;;;;;;;0.70;0.70;;;;;;;-145.69;69.30;52258.22;5115792;28;20217;-80
2024/02/19 02:45:49;;;;;;;0.77;0.77;;;;;;;-145.69;68.89;52289.91;5115606;28;20231;-81
2024/02/19 02:48:15;;;;;;;0.87;0.87;;;;;;;-145.69;69.67;52297.84;5115451;28;20198;-81
2024/02/19 02:50:42;;;;;;;0.70;0.70;;;;;;;-145.69;69.54;52307.75;5115563;28;20233;-80
2024/02/19 02:53:08;;;;;;;0.70;0.70;;;;;;;-145.69;69.30;52291.91;5115190;28;20197;-81
2024/02/19 02:55:35;;;;;;;0.80;0.80;;;;;;;-145.69;69.34;52297.84;5115292;28;20217;-80
2024/02/19 02:58:01;;;;;;;2.27;1.10;;;;;;;-145.69;69.59;52297.84;5115238;28;20357;-80
2024/02/19 03:00:28;;;;;;;0.80;0.80;;;;;;;-145.69;69.01;52293.88;5114901;28;20571;-80
2024/02/19 03:02:55;;;;;;;2.30;0.80;;;;;;;-145.69;69.19;52293.88;5115108;28;20201;-80
2024/02/19 03:05:22;;;;;;;2.63;0.70;;;;;;;-145.69;69.72;52299.81;5113354;27;20216;-80
2024/02/19 03:07:48;;;;;;;1.20;1.10;;;;;;;-145.69;69.93;52293.88;5115251;28;20204;-82
2024/02/19 03:10:15;;;;;;;2.50;1.03;;;;;;;-145.69;69.75;52307.75;5114896;28;20229;-80
2024/02/19 03:12:41;;;;;;;1.50;1.00;;;;;;;-145.69;69.90;52313.69;5114194;28;20292;-81
2024/02/19 03:15:09;;;;;;;0.70;0.70;;;;;;;-145.69;70.65;52291.91;5114810;28;20197;-81
2024/02/19 03:17:35;;;;;;;0.70;0.70;;;;;;;-145.69;70.54;52305.75;5114911;28;20198;-81
2024/02/19 03:20:11;;;;;;;1.07;1.00;;;;;;;-145.69;70.20;52280.00;5115172;28;20201;-80
2024/02/19 03:22:38;;;;;;;1.03;0.80;;;;;;;-145.69;70.55;52282.00;5115098;28;20228;-80
2024/02/19 03:25:06;;;;;;;3.47;1.43;;;;;;;-145.69;70.75;52297.84;5114732;28;20185;-81
2024/02/19 03:27:33;;;;;;;1.73;1.33;;;;;;;-145.69;70.43;52278.03;5114533;28;20232;-80
2024/02/19 03:29:59;;;;;;;1.77;1.33;;;;;;;-145.69;70.62;52323.59;5114468;28;20228;-81
2024/02/19 03:32:25;;;;;;;1.30;1.20;;;;;;;-145.69;70.45;52293.88;5114496;28;20209;-80
2024/02/19 03:34:52;;;;;;;1.47;1.37;;;;;;;-145.69;70.71;52282.00;5114766;28;20572;-80
2024/02/19 03:37:19;;;;;;;1.80;1.13;;;;;;;-145.69;70.45;52282.00;5114699;28;20281;-81
2024/02/19 03:39:46;;;;;;;1.10;1.00;;;;;;;-145.69;70.67;52321.59;5114411;28;20202;-81
2024/02/19 03:42:12;;;;;;;2.83;1.50;;;;;;;-145.69;70.22;52289.91;5114310;28;20660;-80
2024/02/19 03:44:39;;;;;;;5.03;1.27;;;;;;;-145.69;70.41;52319.63;5114597;28;20197;-81
2024/02/19 03:47:06;;;;;;;1.50;1.40;;;;;;;-145.69;70.01;52325.56;5114322;28;20652;-81
2024/02/19 03:49:32;;;;;;;1.60;1.50;;;;;;;-145.69;70.58;52285.97;5113581;28;20237;-81
2024/02/19 03:51:59;;;;;;;2.33;1.37;;;;;;;-145.69;70.26;52297.84;5114483;28;20229;-81
2024/02/19 03:54:26;;;;;;;1.93;1.43;;;;;;;-145.69;70.48;52278.03;5114121;28;20254;-80
2024/02/19 03:56:53;;;;;;;3.03;1.70;;;;;;;-145.69;70.81;52301.81;5113556;28;20221;-80
2024/02/19 03:59:19;;;;;;;1.63;1.50;;;;;;;-145.69;70.63;52321.59;5114276;28;20202;-81
2024/02/19 04:01:45;;;;;;;5.23;1.80;;;;;;;-145.69;70.74;52309.72;5114000;28;20208;-81
2024/02/19 04:04:14;;;;;;;2.90;2.20;;;;;;;-145.69;70.31;52301.81;5114130;27;20205;-80
2024/02/19 04:06:41;;;;;;;3.67;2.60;;;;;;;-145.69;71.08;52321.59;5114054;28;20205;-80
2024/02/19 04:09:08;;;;;;;3.47;2.00;;;;;;;-145.69;70.59;52299.81;5113518;28;20258;-82
2024/02/19 04:11:37;;;;;;;2.97;2.03;;;;;;;-145.69;70.31;52289.91;5113764;28;20206;-81
2024/02/19 04:14:03;;;;;;;4.07;2.10;;;;;;;-145.69;70.93;52331.50;5113805;28;20533;-81
2024/02/19 04:16:30;;;;;;;3.03;1.50;;;;;;;-145.69;70.80;52301.81;5113699;28;20225;-80
2024/02/19 04:18:56;;;;;;;2.60;1.80;;;;;;;-145.69;71.22;52289.91;5113669;28;20201;-80
2024/02/19 04:21:22;;;;;;;3.30;1.90;;;;;;;-145.69;71.13;52325.56;5113810;28;20205;-80
2024/02/19 04:23:49;;;;;;;2.67;1.93;;;;;;;-145.69;71.23;52323.59;5113199;28;20679;-81
2024/02/19 04:26:15;;;;;;;3.83;1.53;;;;;;;-145.69;71.37;52301.81;5113120;28;20205;-82
2024/02/19 04:28:43;;;;;;;2.70;1.60;;;;;;;-145.69;71.11;52309.72;5113201;28;20197;-80
2024/02/19 04:31:10;;;;;;;2.50;1.63;;;;;;;-145.69;71.76;52301.81;5113624;27;20211;-80
2024/02/19 04:33:36;;;;;;;3.40;1.50;;;;;;;-145.69;71.30;52339.44;5113389;28;20205;-80
2024/02/19 04:36:03;;;;;;;3.10;1.70;;;;;;;-145.69;71.27;52297.84;5113439;27;20703;-80
2024/02/19 04:38:29;;;;;;;2.17;1.87;;;;;;;-145.69;71.30;52317.66;5113171;28;20679;-81
2024/02/19 04:40:56;;;;;;;2.77;1.80;;;;;;;-145.69;70.95;52280.00;5113195;28;20209;-81
2024/02/19 04:43:22;;;;;;;4.30;1.90;;;;;;;-145.69;70.83;52299.81;5112852;28;20213;-81
2024/02/19 04:45:50;;;;;;;3.17;1.80;;;;;;;-145.69;71.08;52270.13;5113310;28;20652;-80
2024/02/19 04:48:17;;;;;;;2.10;1.90;;;;;;;-145.69;70.84;52293.88;5113039;28;20197;-80
2024/02/19 04:50:43;;;;;;;3.27;1.90;;;;;;;-145.69;71.00;52309.72;5113192;28;20618;-80
2024/02/19 04:53:10;;;;;;;5.27;2.20;;;;;;;-145.69;70.79;52289.91;5113104;28;20683;-80
2024/02/19 04:55:36;;;;;;;3.03;1.90;;;;;;;-145.69;71.15;52293.88;5113048;28;20201;-81
2024/02/19 04:58:02;;;;;;;1.80;1.60;;;;;;;-145.69;71.30;52331.50;5112745;28;20250;-80
2024/02/19 05:00:30;;;;;;;3.57;1.83;;;;;;;-145.69;71.03;52313.69;5111734;28;20210;-80
2024/02/19 05:02:58;;;;;;;2.60;1.77;;;;;;;-145.69;70.83;52317.66;5113127;28;20197;-80
2024/02/19 05:05:25;;;;;;;1.80;1.70;;;;;;;-145.69;71.12;52297.84;5112985;28;20220;-80
2024/02/19 05:07:52;;;;;;;3.57;2.00;;;;;;;-145.69;70.70;52303.78;5113076;28;20201;-79
2024/02/19 05:10:18;;;;;;;2.10;1.57;;;;;;;-145.69;70.63;52321.59;5112985;28;20221;-79
2024/02/19 05:12:44;;;;;;;4.47;1.70;;;;;;;-145.69;70.86;52311.69;5113227;28;20198;-79
2024/02/19 05:15:11;;;;;;;2.00;1.60;;;;;;;-145.69;70.60;52278.03;5112521;28;20186;-79
2024/02/19 05:17:38;;;;;;;2.83;1.60;;;;;;;-145.69;70.70;52289.91;5112976;28;20221;-79
2024/02/19 05:20:07;;;;;;;1.67;1.43;;;;;;;-145.69;70.41;52319.63;5112559;28;20207;-79
2024/02/19 05:22:34;;;;;;;1.67;1.30;;;;;;;-145.69;70.24;52309.72;5112995;28;20233;-80
2024/02/19 05:25:01;;;;;;;1.67;1.40;;;;;;;-145.69;70.22;52289.91;5113047;28;20326;-79
2024/02/19 05:27:27;;;;;;;3.10;1.40;;;;;;;-145.69;70.36;52307.75;5112936;28;20207;-80
2024/02/19 05:29:53;;;;;;;1.80;1.30;;;;;;;-145.69;70.28;52297.84;5113006;28;20337;-80
2024/02/19 05:32:20;;;;;;;2.77;1.63;;;;;;;-145.69;69.57;52341.41;5112941;28;20205;-80
2024/02/19 05:34:46;;;;;;;1.30;1.20;;;;;;;-145.69;70.14;52323.59;5112680;28;20541;-79
2024/02/19 05:37:14;;;;;;;1.40;1.30;;;;;;;-145.69;69.78;52307.75;5112318;28;20233;-81
2024/02/19 05:39:41;;;;;;;2.30;1.40;;;;;;;-145.69;69.61;52303.78;5112771;28;20246;-79
2024/02/19 05:42:07;;;;;;;3.77;1.47;;;;;;;-145.69;70.17;52293.88;5112616;28;20206;-81
2024/02/19 05:44:34;;;;;;;6.10;1.67;;;;;;;-145.69;69.36;52325.56;5112846;28;20197;-80
2024/02/19 05:47:00;;;;;;;3.20;1.73;;;;;;;-145.69;69.07;52289.91;5112390;28;20197;-80
2024/02/19 05:49:27;;;;;;;3.90;1.70;;;;;;;-145.69;68.89;52278.03;5112332;28;20587;-80
2024/02/19 05:51:53;;;;;;;2.03;1.60;;;;;;;-145.69;69.02;52319.63;5112554;28;20652;-80
2024/02/19 05:54:22;;;;;;;4.97;1.57;;;;;;;-145.69;69.28;52325.56;5112772;28;20202;-80
2024/02/19 05:56:49;;;;;;;2.83;1.50;;;;;;;-145.69;69.58;52311.69;5116467;28;20643;-79
2024/02/19 05:59:15;;;;;;;2.10;1.43;;;;;;;-145.69;69.28;52278.03;5116519;28;20204;-79
2024/02/19 06:01:42;;;;;;;3.23;1.87;;;;;;;-145.69;69.14;52283.97;5116082;28;20220;-81
2024/02/19 06:04:08;;;;;;;5.23;1.83;;;;;;;-145.69;69.49;52307.75;5115986;28;20224;-80
2024/02/19 06:06:35;;;;;;;3.70;1.93;;;;;;;-145.69;68.93;52285.97;5116668;28;20247;-80
2024/02/19 06:09:01;;;;;;;2.23;1.40;;;;;;;-145.69;69.29;52303.78;5115703;28;20189;-81
2024/02/19 06:11:30;;;;;;;2.23;1.90;;;;;;;-145.69;69.20;52301.81;5115578;28;20224;-80
2024/02/19 06:13:57;;;;;;;3.03;1.97;;;;;;;-145.69;69.21;52309.72;5115741;28;20551;-80
2024/02/19 06:16:24;;;;;;;5.20;1.80;;;;;;;-145.69;69.17;52333.47;5115950;28;20217;-80
2024/02/19 06:18:50;;;;;;;4.07;1.53;;;;;;;-145.69;68.89;52272.09;5115954;28;20200;-80
2024/02/19 06:21:16;;;;;;;3.03;1.37;;;;;;;-145.69;68.74;52289.91;5116107;28;20209;-80
2024/02/19 06:23:43;;;;;;;5.20;1.63;;;;;;;-145.69;69.31;52283.97;5115762;28;20210;-80
2024/02/19 06:26:11;;;;;;;2.43;2.03;;;;;;;-145.69;69.79;52305.75;5116062;28;20193;-79
2024/02/19 06:28:40;;;;;;;2.57;1.80;;;;;;;-145.69;69.26;52321.59;5115526;28;20202;-80
2024/02/19 06:31:06;;;;;;;2.73;1.90;;;;;;;-145.69;70.03;52305.75;5115683;28;20251;-80
2024/02/19 06:33:32;;;;;;;2.97;1.97;;;;;;;-145.69;69.91;52293.88;5115887;28;20197;-80
2024/02/19 06:35:59;;;;;;;5.10;1.50;;;;;;;-145.69;69.68;52295.84;5116101;28;20201;-80
2024/02/19 06:38:25;;;;;;;4.30;2.20;;;;;;;-145.69;70.23;52315.66;5115445;28;20275;-79
2024/02/19 06:40:55;;;;;;;2.77;1.50;;;;;;;-145.69;69.96;52309.72;5115370;28;20205;-78
2024/02/19 06:43:22;;;;;;;4.33;2.20;;;;;;;-145.69;69.98;52293.88;5115600;28;20208;-79
2024/02/19 06:45:50;;;;;;;3.33;1.73;;;;;;;-145.69;69.86;52282.00;5115443;28;20197;-79
2024/02/19 06:48:16;;;;;;;3.63;2.00;;;;;;;-145.69;70.36;52287.94;5115434;28;20228;-78
2024/02/19 06:50:42;;;;;;;3.97;2.00;;;;;;;-145.69;70.19;52274.06;5115400;28;20623;-80
2024/02/19 06:53:09;;;;;;;3.33;2.20;;;;;;;-145.69;69.99;52343.38;5115278;28;20198;-79
2024/02/19 06:55:35;;;;;;;2.30;1.90;;;;;;;-145.69;70.16;52309.72;5115437;28;20556;-80
2024/02/19 06:58:02;;;;;;;2.37;1.80;;;;;;;-145.69;70.43;52319.63;5114988;28;20278;-80
2024/02/19 07:00:28;;;;;;;6.50;2.33;;;;;;;-145.69;70.55;52345.38;5115337;28;20197;-80
2024/02/19 07:02:56;;;;;;;2.83;2.00;;;;;;;-145.69;70.26;52282.00;5114590;28;20190;-80
2024/02/19 07:05:22;;;;;;;4.63;2.30;;;;;;;-145.69;70.99;52287.94;5115187;28;20606;-80
2024/02/19 07:07:49;;;;;;;1.73;1.60;;;;;;;-145.69;70.39;52299.81;5113938;28;20247;-79
2024/02/19 07:10:15;;;;;;;4.50;2.13;;;;;;;-145.69;70.71;52325.56;5114271;28;20254;-79
2024/02/19 07:12:41;;;;;;;2.50;2.10;;;;;;;-145.69;70.16;52323.59;5114988;28;20246;-79
2024/02/19 07:15:09;;;;;;;5.03;2.70;;;;;;;-145.69;70.15;52289.91;5114984;28;20193;-79
2024/02/19 07:17:35;;;;;;;4.97;2.30;;;;;;;-145.69;69.99;52309.72;5115182;28;20229;-79
2024/02/19 07:20:03;;;;;;;4.03;2.37;;;;;;;-145.69;69.72;52297.84;5114842;28;20225;-79
2024/02/19 07:22:30;;;;;;;4.17;2.13;;;;;;;-145.69;69.98;52319.63;5114886;28;20608;-80
2024/02/19 07:24:56;;;;;;;4.83;2.33;;;;;;;-145.69;69.92;52321.59;5114815;28;20201;-81
2024/02/19 07:27:24;;;;;;;4.77;2.70;;;;;;;-145.69;69.76;52289.91;5114822;28;20201;-80
2024/02/19 07:29:53;;;;;;;4.70;2.80;;;;;;;-145.69;69.17;52285.97;5114472;28;20575;-80
2024/02/19 07:32:20;;;;;;;8.30;2.80;;;;;;;-145.69;67.95;52297.84;5114768;28;20205;-79
2024/02/19 07:34:46;;;;;;;6.20;2.90;;;;;;;-145.69;68.05;52311.69;5114302;28;20196;-80
2024/02/19 07:37:14;;;;;;;5.07;2.40;;;;;;;-145.69;68.14;52297.84;5114315;28;20254;-79
2024/02/19 07:39:41;;;;;;;5.60;2.77;;;;;;;-145.69;67.95;52289.91;5114371;28;20197;-79
2024/02/19 07:42:08;;;;;;;7.20;2.30;;;;;;;-145.69;67.90;52295.84;5114326;28;20197;-78
2024/02/19 07:44:34;;;;;;;5.37;3.03;;;;;;;-145.69;67.57;52309.72;5114274;27;20597;-79
2024/02/19 07:47:02;;;;;;;6.03;3.33;;;;;;;-145.69;68.04;52313.69;5114197;28;20208;-79
2024/02/19 07:49:28;;;;;;;8.47;4.10;;;;;;;-145.69;67.81;52309.72;5114346;27;20286;-79
2024/02/19 07:51:55;;;;;;;4.87;2.77;;;;;;;-145.69;67.07;52289.91;5114330;28;20651;-79
2024/02/19 07:54:23;;;;;;;5.27;2.87;;;;;;;-145.69;66.60;52291.91;5114353;28;20201;-79
2024/02/19 07:56:49;;;;;;;8.50;3.50;;;;;;;-145.69;66.72;52274.06;5113963;28;20205;-79
2024/02/19 07:59:15;;;;;;;9.00;4.67;;;;;;;-145.69;66.55;52289.91;5113620;28;20671;-81
2024/02/19 08:01:42;;;;;;;7.30;3.90;;;;;;;-145.69;65.61;52297.84;5113629;28;20202;-80
2024/02/19 08:04:08;;;;;;;5.53;3.23;;;;;;;-145.69;64.65;52307.75;5114036;28;20206;-79
2024/02/19 08:06:35;;;;;;;7.00;2.17;;;;;;;-145.69;64.24;52274.06;5113589;28;20208;-80
2024/02/19 08:09:04;;;;;;;4.37;2.50;;;;;;;-145.69;63.87;52323.59;5113751;28;20228;-81
2024/02/19 08:11:32;;;;;;;7.80;2.90;;;;;;;-145.69;63.51;52276.06;5113849;27;20304;-80
2024/02/19 08:13:59;;;;;;;7.47;3.00;;;;;;;-145.69;63.55;52282.00;5114108;28;20205;-80
2024/02/19 08:16:25;;;;;;;3.40;2.20;;;;;;;-145.69;63.70;52268.13;5113474;28;20197;-80
2024/02/19 08:18:52;;;;;;;9.13;2.70;;;;;;;-145.69;62.94;52319.63;5112633;28;20267;-80
2024/02/19 08:21:18;;;;;;;5.33;2.47;;;;;;;-145.69;63.49;52289.91;5113910;28;20292;-80
2024/02/19 08:23:45;;;;;;;8.40;2.37;;;;;;;-145.69;62.90;52309.72;5113615;28;20201;-80
2024/02/19 08:26:11;;;;;;;7.73;2.40;;;;;;;-145.69;62.14;52315.66;5113835;28;20198;-80
2024/02/19 08:28:39;;;;;;;8.40;3.03;;;;;;;-145.69;61.61;52299.81;5113616;27;20198;-80
2024/02/19 08:31:05;;;;;;;2.63;2.37;;;;;;;-145.69;59.57;52291.91;5113531;28;20220;-80
2024/02/19 08:33:32;;;;;;;7.93;2.50;;;;;;;-145.69;59.74;52307.75;5113148;28;20251;-80
2024/02/19 08:36:00;;;;;;;6.40;2.30;;;;;;;-145.69;59.41;52305.75;5112576;28;20194;-79
2024/02/19 08:38:27;;;;;;;7.07;2.03;;;;;;;-145.69;59.06;52313.69;5112612;28;20697;-80
2024/02/19 08:40:54;;;;;;;7.30;2.37;;;;;;;-145.69;59.08;52285.97;5112580;28;20216;-79
2024/02/19 08:43:20;;;;;;;4.63;2.20;;;;;;;-145.69;58.31;52293.88;5113142;28;20204;-80
2024/02/19 08:45:48;;;;;;;8.03;2.47;;;;;;;-145.69;58.57;52262.19;5112627;28;20196;-80
2024/02/19 08:48:15;;;;;;;13.63;3.93;;;;;;;-145.69;58.33;52280.00;5113167;28;20716;-80
2024/02/19 08:50:43;;;;;;;8.93;2.43;;;;;;;-145.69;57.93;52317.66;5112831;28;20630;-80
2024/02/19 08:53:09;;;;;;;5.00;2.03;;;;;;;-145.69;58.25;52309.72;5113298;28;20219;-80
2024/02/19 08:55:36;;;;;;;16.70;2.93;;;;;;;-145.69;58.02;52295.84;5112782;28;20254;-81
2024/02/19 08:58:02;;;;;;;5.03;2.00;;;;;;;-145.69;58.23;52250.31;5113159;28;20236;-80
2024/02/19 09:00:29;;;;;;;4.77;2.10;;;;;;;-145.69;57.55;52250.31;5111850;28;20679;-79
2024/02/19 09:02:56;;;;;;;9.53;2.50;;;;;;;-145.69;58.08;52285.97;5111902;28;20672;-80
2024/02/19 09:05:23;;;;;;;7.17;1.83;;;;;;;-145.69;57.52;52282.00;5112945;28;20245;-80
2024/02/19 09:07:49;;;;;;;9.50;2.60;;;;;;;-145.69;58.00;52289.91;5111759;28;20679;-80
2024/02/19 09:10:16;;;;;;;4.97;1.83;;;;;;;-145.69;58.61;52270.13;5112626;28;20545;-81
2024/02/19 09:12:43;;;;;;;7.53;2.20;;;;;;;-145.69;58.53;52282.00;5113096;28;20205;-80
2024/02/19 09:15:10;;;;;;;5.63;2.13;;;;;;;-145.69;58.65;52258.22;5112927;28;20644;-79
2024/02/19 09:17:36;;;;;;;9.00;2.10;;;;;;;-145.69;57.98;52289.91;5112774;28;20629;-80
2024/02/19 09:20:06;;;;;;;4.37;1.83;;;;;;;-145.69;57.25;52270.13;5112494;28;20197;-81
2024/02/19 09:22:33;;;;;;;4.77;2.07;;;;;;;-145.69;58.18;52278.03;5113211;28;20655;-81
2024/02/19 09:25:00;;;;;;;6.13;1.80;;;;;;;-145.69;56.80;52299.81;5112280;28;20242;-80
2024/02/19 09:27:28;;;;;;;14.03;2.37;;;;;;;-145.69;56.30;52303.78;5112944;28;20226;-80
2024/02/19 09:29:56;;;;;;;7.43;1.90;;;;;;;-145.69;56.17;52272.09;5113735;28;20205;-80
2024/02/19 09:32:25;;;;;;;9.90;2.60;;;;;;;-145.69;55.55;52280.00;5116950;28;20223;-79
2024/02/19 09:34:52;;;;;;;7.20;1.77;;;;;;;-145.69;55.75;52299.81;5116809;28;20293;-79
2024/02/19 09:37:30;;;;;;;6.00;1.80;;;;;;;-145.69;55.50;52270.13;5116861;27;20711;-81
2024/02/19 09:40:08;;;;;;;8.77;2.10;;;;;;;-145.69;55.68;52278.03;5116528;28;20197;-80
2024/02/19 09:42:47;;;;;;;5.30;2.00;;;;;;;-145.69;56.44;52246.34;5116926;27;20212;-80
2024/02/19 09:45:14;;;;;;;8.77;2.17;;;;;;;-145.69;57.22;52266.16;5116896;27;20205;-79
2024/02/19 09:47:46;;;;;;;6.80;1.93;;;;;;;-145.69;57.03;52262.19;5116806;28;20284;-79
2024/02/19 09:50:13;;;;;;;9.20;2.20;;;;;;;-145.69;57.25;52293.88;5115993;27;20225;-80
2024/02/19 09:52:49;;;;;;;4.80;2.00;;;;;;;-145.69;56.63;52272.09;5116351;28;20197;-80
2024/02/19 09:55:15;;;;;;;5.70;1.90;;;;;;;-145.69;56.48;52266.16;5116347;28;20652;-80
2024/02/19 09:57:46;;;;;;;8.13;1.67;;;;;;;-145.69;55.64;52276.06;5115769;28;20286;-79
2024/02/19 10:00:19;;;;;;;5.47;1.73;;;;;;;-145.69;56.27;52297.84;5116312;28;20197;-79
2024/02/19 10:02:49;;;;;;;2.60;1.60;;;;;;;-145.69;57.38;52287.94;5115917;27;20239;-79
2024/02/19 10:05:18;;;;;;;5.47;1.57;;;;;;;-145.69;57.45;52307.75;5116029;28;20637;-80
2024/02/19 10:07:53;;;;;;;9.90;2.03;;;;;;;-145.69;57.80;52287.94;5115787;27;20721;-79
2024/02/19 10:10:23;;;;;;;5.47;1.93;;;;;;;-145.69;56.83;52268.13;5115686;28;20652;-79
2024/02/19 10:12:50;;;;;;;8.73;1.97;;;;;;;-145.69;57.18;52309.72;5116358;28;20197;-79
2024/02/19 10:15:16;;;;;;;6.90;1.90;;;;;;;-145.69;57.60;52289.91;5115496;28;20194;-80
2024/02/19 10:17:43;;;;;;;9.70;1.80;;;;;;;-145.69;57.44;52289.91;5116207;28;20221;-79
2024/02/19 10:20:12;;;;;;;4.93;1.63;;;;;;;-145.69;57.67;52272.09;5115241;28;20208;-79
2024/02/19 10:22:41;;;;;;;4.17;1.53;;;;;;;-145.69;57.15;52285.97;5115952;28;20201;-79
2024/02/19 10:25:12;;;;;;;4.43;1.80;;;;;;;-145.69;56.87;52266.16;5115737;28;20202;-79
2024/02/19 10:27:39;;;;;;;7.37;1.73;;;;;;;-145.69;55.65;52252.28;5115913;28;20198;-80
2024/02/19 10:30:12;;;;;;;6.07;1.60;;;;;;;-145.69;54.62;52301.81;5115469;28;20280;-79
2024/02/19 10:32:43;;;;;;;7.83;1.43;;;;;;;-145.69;54.07;52293.88;5115757;28;20201;-79
2024/02/19 10:35:10;;;;;;;3.13;1.53;;;;;;;-145.69;53.37;52291.91;5114143;28;20193;-79
2024/02/19 10:37:39;;;;;;;6.47;1.67;;;;;;;-145.69;53.40;52289.91;5114652;28;20209;-80
2024/02/19 10:40:17;;;;;;;7.63;1.73;;;;;;;-145.69;54.16;52260.22;5115388;28;20213;-78
2024/02/19 10:42:43;;;;;;;4.50;1.67;;;;;;;-145.69;54.50;52291.91;5094258;28;20288;-78
2024/02/19 10:45:13;;;;;;;6.40;1.60;;;;;;;-145.69;54.62;52278.03;5095014;28;20699;-80
2024/02/19 10:47:41;;;;;;;3.27;1.40;;;;;;;-145.69;55.01;52270.13;5095243;28;20198;-80
2024/02/19 10:50:08;;;;;;;6.80;1.67;;;;;;;-145.69;55.08;52270.13;5095396;28;20261;-80
2024/02/19 10:52:39;;;;;;;6.43;1.50;;;;;;;-145.69;54.36;52252.28;5110917;28;20559;-80
2024/02/19 10:55:12;;;;;;;8.00;3.20;;;;;;;-145.69;54.48;52262.19;5115212;28;20220;-79
2024/02/19 10:57:48;;;;;;;7.37;1.60;;;;;;;-145.69;54.18;52262.19;5115153;28;20206;-79
2024/02/19 11:00:25;;;;;;;3.57;1.43;;;;;;;-145.69;54.17;52260.22;5115198;27;20261;-80
2024/02/19 11:03:03;;;;;;;6.70;1.90;;;;;;;-145.69;53.76;52258.22;5114669;27;20274;-80
2024/02/19 11:05:34;;;;;;;9.07;2.50;;;;;;;-145.69;54.27;52252.28;5114383;28;20209;-81
2024/02/19 11:08:01;;;;;;;11.10;2.10;;;;;;;-145.69;53.90;52272.09;5115039;28;20193;-80
2024/02/19 11:10:40;;;;;;;4.93;1.90;;;;;;;-145.69;53.92;52278.03;5114443;28;20202;-80
2024/02/19 11:13:13;;;;;;;9.67;1.60;;;;;;;-145.69;52.94;52278.03;5094780;28;20209;-79
2024/02/19 11:15:42;;;;;;;8.70;1.80;;;;;;;-145.69;52.62;52301.81;5097297;27;20200;-79
2024/02/19 11:18:15;;;;;;;4.57;1.80;;;;;;;-145.69;52.68;52266.16;5114415;28;20232;-79